sensor_id;sensor_type;location;lat;lon;timestamp;P1;durP1;ratioP1;P2;durP2;ratioP2
69323;SDS011;56470;47.350;8.718;2022-09-12T00:01:48;3.97;;;1.93;;
69323;SDS011;56470;47.350;8.718;2022-09-12T00:04:13;4.90;;;1.43;;
69323;SDS011;56470;47.350;8.718;2022-09-12T00:06:38;3.57;;;2.13;;
69323;SDS011;56470;47.350;8.718;2022-09-12T00:09:08;4.47;;;1.70;;
69323;SDS011;56470;47.350;8.718;2022-09-12T00:11:36;2.90;;;1.50;;
69323;SDS011;56470;47.350;8.718;2022-09-12T00:14:03;3.22;;;1.60;;
69323;SDS011;56470;47.350;8.718;2022-09-12T00:16:30;4.65;;;1.65;;
69323;SDS011;56470;47.350;8.718;2022-09-12T00:18:57;4.25;;;1.60;;
69323;SDS011;56470;47.350;8.718;2022-09-12T00:21:22;2.97;;;1.63;;
69323;SDS011;56470;47.350;8.718;2022-09-12T00:23:49;3.20;;;1.45;;
69323;SDS011;56470;47.350;8.718;2022-09-12T00:26:15;3.15;;;1.85;;
69323;SDS011;56470;47.350;8.718;2022-09-12T00:28:42;2.90;;;1.40;;
69323;SDS011;56470;47.350;8.718;2022-09-12T00:31:11;4.05;;;1.98;;
69323;SDS011;56470;47.350;8.718;2022-09-12T00:33:38;3.55;;;1.60;;
69323;SDS011;56470;47.350;8.718;2022-09-12T00:36:05;2.50;;;1.88;;
69323;SDS011;56470;47.350;8.718;2022-09-12T00:38:33;3.87;;;1.60;;
69323;SDS011;56470;47.350;8.718;2022-09-12T00:41:02;2.60;;;1.25;;
69323;SDS011;56470;47.350;8.718;2022-09-12T00:43:43;2.38;;;1.50;;
69323;SDS011;56470;47.350;8.718;2022-09-12T00:48:55;4.88;;;2.22;;
69323;SDS011;56470;47.350;8.718;2022-09-12T00:51:27;2.77;;;1.70;;
69323;SDS011;56470;47.350;8.718;2022-09-12T00:53:55;2.80;;;1.90;;
69323;SDS011;56470;47.350;8.718;2022-09-12T00:56:21;3.47;;;2.25;;
69323;SDS011;56470;47.350;8.718;2022-09-12T00:58:50;3.67;;;1.80;;
69323;SDS011;56470;47.350;8.718;2022-09-12T01:01:22;3.22;;;1.85;;
69323;SDS011;56470;47.350;8.718;2022-09-12T01:03:48;4.03;;;1.73;;
69323;SDS011;56470;47.350;8.718;2022-09-12T01:06:18;2.78;;;1.70;;
69323;SDS011;56470;47.350;8.718;2022-09-12T01:08:46;2.20;;;1.85;;
69323;SDS011;56470;47.350;8.718;2022-09-12T01:11:13;3.63;;;1.97;;
69323;SDS011;56470;47.350;8.718;2022-09-12T01:13:39;5.20;;;2.10;;
69323;SDS011;56470;47.350;8.718;2022-09-12T01:16:05;3.28;;;1.85;;
69323;SDS011;56470;47.350;8.718;2022-09-12T01:18:41;3.60;;;1.50;;
69323;SDS011;56470;47.350;8.718;2022-09-12T01:27:49;3.15;;;1.63;;
69323;SDS011;56470;47.350;8.718;2022-09-12T01:35:51;2.88;;;1.40;;
69323;SDS011;56470;47.350;8.718;2022-09-12T01:38:29;3.22;;;2.00;;
69323;SDS011;56470;47.350;8.718;2022-09-12T01:47:10;2.70;;;1.63;;
69323;SDS011;56470;47.350;8.718;2022-09-12T01:49:43;3.65;;;2.00;;
69323;SDS011;56470;47.350;8.718;2022-09-12T01:52:23;3.63;;;1.77;;
69323;SDS011;56470;47.350;8.718;2022-09-12T01:55:00;2.80;;;1.63;;
69323;SDS011;56470;47.350;8.718;2022-09-12T01:57:38;3.45;;;2.13;;
69323;SDS011;56470;47.350;8.718;2022-09-12T02:00:10;2.53;;;1.87;;
69323;SDS011;56470;47.350;8.718;2022-09-12T02:05:30;3.17;;;1.95;;
69323;SDS011;56470;47.350;8.718;2022-09-12T02:08:09;4.88;;;1.55;;
69323;SDS011;56470;47.350;8.718;2022-09-12T02:10:49;6.07;;;1.85;;
69323;SDS011;56470;47.350;8.718;2022-09-12T02:13:42;3.30;;;1.70;;
69323;SDS011;56470;47.350;8.718;2022-09-12T02:16:15;2.60;;;1.88;;
69323;SDS011;56470;47.350;8.718;2022-09-12T02:18:51;2.47;;;1.77;;
69323;SDS011;56470;47.350;8.718;2022-09-12T02:21:20;2.30;;;1.73;;
69323;SDS011;56470;47.350;8.718;2022-09-12T02:23:49;3.80;;;2.28;;
69323;SDS011;56470;47.350;8.718;2022-09-12T02:26:21;2.60;;;1.70;;
69323;SDS011;56470;47.350;8.718;2022-09-12T02:28:52;3.17;;;1.85;;
69323;SDS011;56470;47.350;8.718;2022-09-12T02:31:20;5.37;;;1.80;;
69323;SDS011;56470;47.350;8.718;2022-09-12T02:39:29;3.28;;;1.60;;
69323;SDS011;56470;47.350;8.718;2022-09-12T02:41:55;3.17;;;1.60;;
69323;SDS011;56470;47.350;8.718;2022-09-12T02:44:24;3.45;;;1.42;;
69323;SDS011;56470;47.350;8.718;2022-09-12T02:46:56;4.03;;;1.88;;
69323;SDS011;56470;47.350;8.718;2022-09-12T02:49:26;4.63;;;2.00;;
69323;SDS011;56470;47.350;8.718;2022-09-12T02:51:51;3.03;;;1.70;;
69323;SDS011;56470;47.350;8.718;2022-09-12T02:54:17;3.30;;;2.03;;
69323;SDS011;56470;47.350;8.718;2022-09-12T02:56:44;3.88;;;1.98;;
69323;SDS011;56470;47.350;8.718;2022-09-12T02:59:10;3.63;;;2.40;;
69323;SDS011;56470;47.350;8.718;2022-09-12T03:09:36;2.87;;;1.63;;
69323;SDS011;56470;47.350;8.718;2022-09-12T03:12:31;3.53;;;1.90;;
69323;SDS011;56470;47.350;8.718;2022-09-12T03:15:21;4.70;;;2.05;;
69323;SDS011;56470;47.350;8.718;2022-09-12T03:18:05;5.28;;;2.75;;
69323;SDS011;56470;47.350;8.718;2022-09-12T03:26:29;3.28;;;2.05;;
69323;SDS011;56470;47.350;8.718;2022-09-12T03:29:01;3.53;;;1.83;;
69323;SDS011;56470;47.350;8.718;2022-09-12T03:31:28;3.83;;;2.28;;
69323;SDS011;56470;47.350;8.718;2022-09-12T03:33:54;3.10;;;2.00;;
69323;SDS011;56470;47.350;8.718;2022-09-12T03:36:21;3.92;;;1.98;;
69323;SDS011;56470;47.350;8.718;2022-09-12T03:38:48;3.07;;;1.90;;
69323;SDS011;56470;47.350;8.718;2022-09-12T03:41:13;5.28;;;2.40;;
69323;SDS011;56470;47.350;8.718;2022-09-12T03:43:39;2.77;;;1.83;;
69323;SDS011;56470;47.350;8.718;2022-09-12T03:46:05;3.13;;;2.10;;
69323;SDS011;56470;47.350;8.718;2022-09-12T03:48:30;3.92;;;1.77;;
69323;SDS011;56470;47.350;8.718;2022-09-12T03:50:58;3.60;;;1.80;;
69323;SDS011;56470;47.350;8.718;2022-09-12T03:53:25;4.85;;;2.22;;
69323;SDS011;56470;47.350;8.718;2022-09-12T03:55:50;5.37;;;2.23;;
69323;SDS011;56470;47.350;8.718;2022-09-12T03:58:15;3.17;;;2.30;;
69323;SDS011;56470;47.350;8.718;2022-09-12T04:00:40;5.23;;;2.13;;
69323;SDS011;56470;47.350;8.718;2022-09-12T04:03:08;3.10;;;1.95;;
69323;SDS011;56470;47.350;8.718;2022-09-12T04:05:34;3.10;;;2.23;;
69323;SDS011;56470;47.350;8.718;2022-09-12T04:07:59;4.82;;;2.42;;
69323;SDS011;56470;47.350;8.718;2022-09-12T04:10:25;5.18;;;2.30;;
69323;SDS011;56470;47.350;8.718;2022-09-12T04:12:50;3.63;;;2.37;;
69323;SDS011;56470;47.350;8.718;2022-09-12T04:15:15;4.90;;;2.10;;
69323;SDS011;56470;47.350;8.718;2022-09-12T04:17:41;4.33;;;1.93;;
69323;SDS011;56470;47.350;8.718;2022-09-12T04:20:06;4.67;;;2.63;;
69323;SDS011;56470;47.350;8.718;2022-09-12T04:22:32;5.03;;;2.30;;
69323;SDS011;56470;47.350;8.718;2022-09-12T04:24:57;3.47;;;2.40;;
69323;SDS011;56470;47.350;8.718;2022-09-12T04:27:23;5.13;;;2.30;;
69323;SDS011;56470;47.350;8.718;2022-09-12T04:29:48;5.53;;;2.73;;
69323;SDS011;56470;47.350;8.718;2022-09-12T04:32:13;4.00;;;2.90;;
69323;SDS011;56470;47.350;8.718;2022-09-12T04:34:39;5.32;;;2.42;;
69323;SDS011;56470;47.350;8.718;2022-09-12T04:37:04;4.63;;;2.53;;
69323;SDS011;56470;47.350;8.718;2022-09-12T04:39:29;4.13;;;2.30;;
69323;SDS011;56470;47.350;8.718;2022-09-12T04:41:55;4.80;;;2.63;;
69323;SDS011;56470;47.350;8.718;2022-09-12T04:44:20;4.80;;;2.23;;
69323;SDS011;56470;47.350;8.718;2022-09-12T04:46:46;4.80;;;2.47;;
69323;SDS011;56470;47.350;8.718;2022-09-12T04:49:12;4.27;;;1.90;;
69323;SDS011;56470;47.350;8.718;2022-09-12T04:51:38;4.30;;;2.17;;
69323;SDS011;56470;47.350;8.718;2022-09-12T04:54:06;4.07;;;2.30;;
69323;SDS011;56470;47.350;8.718;2022-09-12T04:56:37;4.32;;;2.10;;
69323;SDS011;56470;47.350;8.718;2022-09-12T04:59:04;3.27;;;1.93;;
69323;SDS011;56470;47.350;8.718;2022-09-12T05:01:29;5.30;;;2.10;;
69323;SDS011;56470;47.350;8.718;2022-09-12T05:03:55;7.10;;;2.13;;
69323;SDS011;56470;47.350;8.718;2022-09-12T05:06:23;3.33;;;1.90;;
69323;SDS011;56470;47.350;8.718;2022-09-12T05:08:50;6.13;;;2.63;;
69323;SDS011;56470;47.350;8.718;2022-09-12T05:11:17;5.00;;;2.45;;
69323;SDS011;56470;47.350;8.718;2022-09-12T05:13:44;7.03;;;3.03;;
69323;SDS011;56470;47.350;8.718;2022-09-12T05:16:10;7.00;;;2.90;;
69323;SDS011;56470;47.350;8.718;2022-09-12T05:18:37;15.55;;;3.33;;
69323;SDS011;56470;47.350;8.718;2022-09-12T05:21:04;8.50;;;3.50;;
69323;SDS011;56470;47.350;8.718;2022-09-12T05:23:31;8.13;;;3.65;;
69323;SDS011;56470;47.350;8.718;2022-09-12T05:25:58;6.00;;;3.50;;
69323;SDS011;56470;47.350;8.718;2022-09-12T05:28:27;18.90;;;4.47;;
69323;SDS011;56470;47.350;8.718;2022-09-12T05:33:27;12.57;;;3.65;;
69323;SDS011;56470;47.350;8.718;2022-09-12T05:35:52;14.98;;;4.47;;
69323;SDS011;56470;47.350;8.718;2022-09-12T05:38:18;8.73;;;4.23;;
69323;SDS011;56470;47.350;8.718;2022-09-12T05:40:43;10.93;;;3.77;;
69323;SDS011;56470;47.350;8.718;2022-09-12T05:43:09;30.43;;;4.27;;
69323;SDS011;56470;47.350;8.718;2022-09-12T05:45:36;18.08;;;4.32;;
69323;SDS011;56470;47.350;8.718;2022-09-12T05:48:06;10.80;;;3.67;;
69323;SDS011;56470;47.350;8.718;2022-09-12T05:50:31;7.30;;;3.27;;
69323;SDS011;56470;47.350;8.718;2022-09-12T05:52:57;6.80;;;4.07;;
69323;SDS011;56470;47.350;8.718;2022-09-12T05:55:22;9.50;;;4.07;;
69323;SDS011;56470;47.350;8.718;2022-09-12T05:57:48;6.77;;;3.53;;
69323;SDS011;56470;47.350;8.718;2022-09-12T06:00:14;6.25;;;3.83;;
69323;SDS011;56470;47.350;8.718;2022-09-12T06:02:40;6.57;;;3.78;;
69323;SDS011;56470;47.350;8.718;2022-09-12T06:05:05;7.20;;;3.77;;
69323;SDS011;56470;47.350;8.718;2022-09-12T06:07:31;7.78;;;3.80;;
69323;SDS011;56470;47.350;8.718;2022-09-12T06:09:56;6.63;;;4.50;;
69323;SDS011;56470;47.350;8.718;2022-09-12T06:12:23;7.65;;;4.40;;
69323;SDS011;56470;47.350;8.718;2022-09-12T06:14:50;6.90;;;4.05;;
69323;SDS011;56470;47.350;8.718;2022-09-12T06:17:16;7.17;;;4.23;;
69323;SDS011;56470;47.350;8.718;2022-09-12T06:19:42;12.23;;;4.38;;
69323;SDS011;56470;47.350;8.718;2022-09-12T06:22:08;9.87;;;4.70;;
69323;SDS011;56470;47.350;8.718;2022-09-12T06:24:33;8.60;;;4.50;;
69323;SDS011;56470;47.350;8.718;2022-09-12T06:26:59;8.33;;;4.27;;
69323;SDS011;56470;47.350;8.718;2022-09-12T06:29:26;6.60;;;4.20;;
69323;SDS011;56470;47.350;8.718;2022-09-12T06:31:51;7.87;;;3.90;;
69323;SDS011;56470;47.350;8.718;2022-09-12T06:34:16;6.40;;;4.30;;
69323;SDS011;56470;47.350;8.718;2022-09-12T06:36:43;5.50;;;3.30;;
69323;SDS011;56470;47.350;8.718;2022-09-12T06:39:11;5.90;;;3.38;;
69323;SDS011;56470;47.350;8.718;2022-09-12T06:41:38;6.07;;;4.10;;
69323;SDS011;56470;47.350;8.718;2022-09-12T06:44:03;6.00;;;3.83;;
69323;SDS011;56470;47.350;8.718;2022-09-12T06:46:29;6.47;;;3.43;;
69323;SDS011;56470;47.350;8.718;2022-09-12T06:48:57;5.80;;;3.65;;
69323;SDS011;56470;47.350;8.718;2022-09-12T06:51:24;5.15;;;2.92;;
69323;SDS011;56470;47.350;8.718;2022-09-12T06:53:52;6.53;;;3.28;;
69323;SDS011;56470;47.350;8.718;2022-09-12T06:56:20;5.73;;;3.23;;
69323;SDS011;56470;47.350;8.718;2022-09-12T06:58:48;5.68;;;3.00;;
69323;SDS011;56470;47.350;8.718;2022-09-12T07:01:18;4.13;;;2.65;;
69323;SDS011;56470;47.350;8.718;2022-09-12T07:03:46;5.82;;;3.05;;
69323;SDS011;56470;47.350;8.718;2022-09-12T07:06:17;5.05;;;2.95;;
69323;SDS011;56470;47.350;8.718;2022-09-12T07:08:44;5.43;;;3.20;;
69323;SDS011;56470;47.350;8.718;2022-09-12T07:11:14;3.97;;;2.67;;
69323;SDS011;56470;47.350;8.718;2022-09-12T07:13:42;4.35;;;2.85;;
69323;SDS011;56470;47.350;8.718;2022-09-12T07:16:10;4.65;;;2.45;;
69323;SDS011;56470;47.350;8.718;2022-09-12T07:18:37;5.00;;;2.85;;
69323;SDS011;56470;47.350;8.718;2022-09-12T07:21:05;5.00;;;2.87;;
69323;SDS011;56470;47.350;8.718;2022-09-12T07:23:32;6.35;;;2.70;;
69323;SDS011;56470;47.350;8.718;2022-09-12T07:25:57;5.87;;;2.67;;
69323;SDS011;56470;47.350;8.718;2022-09-12T07:28:24;3.67;;;2.13;;
69323;SDS011;56470;47.350;8.718;2022-09-12T07:30:51;4.93;;;2.20;;
69323;SDS011;56470;47.350;8.718;2022-09-12T07:33:18;5.20;;;2.40;;
69323;SDS011;56470;47.350;8.718;2022-09-12T07:35:53;4.82;;;2.50;;
69323;SDS011;56470;47.350;8.718;2022-09-12T07:38:21;4.80;;;2.30;;
69323;SDS011;56470;47.350;8.718;2022-09-12T07:40:47;4.28;;;2.70;;
69323;SDS011;56470;47.350;8.718;2022-09-12T07:43:12;3.67;;;2.17;;
69323;SDS011;56470;47.350;8.718;2022-09-12T07:45:38;5.10;;;2.27;;
69323;SDS011;56470;47.350;8.718;2022-09-12T07:48:07;4.35;;;2.05;;
69323;SDS011;56470;47.350;8.718;2022-09-12T07:50:33;4.03;;;1.98;;
69323;SDS011;56470;47.350;8.718;2022-09-12T07:52:58;4.05;;;1.65;;
69323;SDS011;56470;47.350;8.718;2022-09-12T07:55:25;6.03;;;2.17;;
69323;SDS011;56470;47.350;8.718;2022-09-12T07:57:50;3.40;;;1.73;;
69323;SDS011;56470;47.350;8.718;2022-09-12T08:00:16;3.00;;;1.67;;
69323;SDS011;56470;47.350;8.718;2022-09-12T08:02:42;2.58;;;1.42;;
69323;SDS011;56470;47.350;8.718;2022-09-12T08:05:07;2.80;;;1.70;;
69323;SDS011;56470;47.350;8.718;2022-09-12T08:07:33;1.73;;;1.33;;
69323;SDS011;56470;47.350;8.718;2022-09-12T08:09:59;6.63;;;1.40;;
69323;SDS011;56470;47.350;8.718;2022-09-12T08:12:24;2.70;;;1.83;;
69323;SDS011;56470;47.350;8.718;2022-09-12T08:14:51;3.38;;;1.80;;
69323;SDS011;56470;47.350;8.718;2022-09-12T08:17:16;3.37;;;1.90;;
69323;SDS011;56470;47.350;8.718;2022-09-12T08:19:42;1.83;;;1.35;;
69323;SDS011;56470;47.350;8.718;2022-09-12T08:22:08;2.20;;;1.37;;
69323;SDS011;56470;47.350;8.718;2022-09-12T08:24:34;4.03;;;1.85;;
69323;SDS011;56470;47.350;8.718;2022-09-12T08:26:59;3.10;;;1.70;;
69323;SDS011;56470;47.350;8.718;2022-09-12T08:29:25;5.67;;;1.87;;
69323;SDS011;56470;47.350;8.718;2022-09-12T08:31:50;3.13;;;1.67;;
69323;SDS011;56470;47.350;8.718;2022-09-12T08:34:15;3.20;;;1.50;;
69323;SDS011;56470;47.350;8.718;2022-09-12T08:36:43;5.03;;;2.03;;
69323;SDS011;56470;47.350;8.718;2022-09-12T08:39:10;3.38;;;2.08;;
69323;SDS011;56470;47.350;8.718;2022-09-12T08:41:40;6.20;;;2.20;;
69323;SDS011;56470;47.350;8.718;2022-09-12T08:44:25;3.42;;;2.42;;
69323;SDS011;56470;47.350;8.718;2022-09-12T08:47:09;3.45;;;3.15;;
69323;SDS011;56470;47.350;8.718;2022-09-12T08:49:38;5.30;;;3.38;;
69323;SDS011;56470;47.350;8.718;2022-09-12T08:52:21;5.50;;;5.00;;
69323;SDS011;56470;47.350;8.718;2022-09-12T08:54:51;4.43;;;4.03;;
69323;SDS011;56470;47.350;8.718;2022-09-12T08:57:17;3.70;;;3.40;;
69323;SDS011;56470;47.350;8.718;2022-09-12T08:59:44;3.73;;;3.17;;
69323;SDS011;56470;47.350;8.718;2022-09-12T09:02:23;2.70;;;2.05;;
69323;SDS011;56470;47.350;8.718;2022-09-12T09:04:59;2.33;;;1.60;;
69323;SDS011;56470;47.350;8.718;2022-09-12T09:10:16;3.25;;;1.73;;
69323;SDS011;56470;47.350;8.718;2022-09-12T09:18:42;3.80;;;1.50;;
69323;SDS011;56470;47.350;8.718;2022-09-12T09:24:02;3.90;;;1.60;;
69323;SDS011;56470;47.350;8.718;2022-09-12T09:29:38;1.80;;;1.13;;
69323;SDS011;56470;47.350;8.718;2022-09-12T09:32:14;2.90;;;1.45;;
69323;SDS011;56470;47.350;8.718;2022-09-12T09:34:42;2.42;;;1.30;;
69323;SDS011;56470;47.350;8.718;2022-09-12T09:37:15;1.97;;;1.47;;
69323;SDS011;56470;47.350;8.718;2022-09-12T09:42:27;3.88;;;1.88;;
69323;SDS011;56470;47.350;8.718;2022-09-12T09:45:13;2.92;;;1.40;;
69323;SDS011;56470;47.350;8.718;2022-09-12T09:48:16;3.13;;;1.80;;
69323;SDS011;56470;47.350;8.718;2022-09-12T09:50:40;2.60;;;1.95;;
69323;SDS011;56470;47.350;8.718;2022-09-12T09:53:08;2.08;;;1.23;;
69323;SDS011;56470;47.350;8.718;2022-09-12T09:55:49;3.15;;;1.73;;
69323;SDS011;56470;47.350;8.718;2022-09-12T09:58:27;2.35;;;1.50;;
69323;SDS011;56470;47.350;8.718;2022-09-12T10:00:56;3.87;;;1.53;;
69323;SDS011;56470;47.350;8.718;2022-09-12T10:03:25;3.80;;;1.90;;
69323;SDS011;56470;47.350;8.718;2022-09-12T10:05:56;4.85;;;1.42;;
69323;SDS011;56470;47.350;8.718;2022-09-12T10:08:30;4.57;;;1.92;;
69323;SDS011;56470;47.350;8.718;2022-09-12T10:11:00;3.30;;;1.60;;
69323;SDS011;56470;47.350;8.718;2022-09-12T10:13:37;4.57;;;2.03;;
69323;SDS011;56470;47.350;8.718;2022-09-12T10:16:25;2.30;;;1.58;;
69323;SDS011;56470;47.350;8.718;2022-09-12T10:18:57;2.83;;;1.80;;
69323;SDS011;56470;47.350;8.718;2022-09-12T10:24:17;3.65;;;1.50;;
69323;SDS011;56470;47.350;8.718;2022-09-12T10:26:51;3.70;;;1.97;;
69323;SDS011;56470;47.350;8.718;2022-09-12T10:29:22;8.98;;;2.10;;
69323;SDS011;56470;47.350;8.718;2022-09-12T10:31:53;6.40;;;2.05;;
69323;SDS011;56470;47.350;8.718;2022-09-12T10:34:22;3.05;;;2.13;;
69323;SDS011;56470;47.350;8.718;2022-09-12T10:36:50;8.13;;;1.85;;
69323;SDS011;56470;47.350;8.718;2022-09-12T10:39:18;3.20;;;2.23;;
69323;SDS011;56470;47.350;8.718;2022-09-12T10:41:44;4.07;;;2.28;;
69323;SDS011;56470;47.350;8.718;2022-09-12T10:44:14;3.45;;;1.98;;
69323;SDS011;56470;47.350;8.718;2022-09-12T10:46:41;4.53;;;1.80;;
69323;SDS011;56470;47.350;8.718;2022-09-12T10:49:18;4.22;;;1.63;;
69323;SDS011;56470;47.350;8.718;2022-09-12T10:51:45;3.80;;;2.00;;
69323;SDS011;56470;47.350;8.718;2022-09-12T10:54:11;4.40;;;2.05;;
69323;SDS011;56470;47.350;8.718;2022-09-12T10:56:38;3.80;;;1.80;;
69323;SDS011;56470;47.350;8.718;2022-09-12T11:02:49;4.00;;;2.08;;
69323;SDS011;56470;47.350;8.718;2022-09-12T11:11:01;3.28;;;1.60;;
69323;SDS011;56470;47.350;8.718;2022-09-12T11:14:32;3.10;;;1.90;;
69323;SDS011;56470;47.350;8.718;2022-09-12T11:16:49;2.72;;;1.63;;
69323;SDS011;56470;47.350;8.718;2022-09-12T11:22:27;2.33;;;1.55;;
69323;SDS011;56470;47.350;8.718;2022-09-12T11:27:38;5.03;;;1.80;;
69323;SDS011;56470;47.350;8.718;2022-09-12T11:30:12;4.82;;;1.90;;
69323;SDS011;56470;47.350;8.718;2022-09-12T11:35:33;5.53;;;2.03;;
69323;SDS011;56470;47.350;8.718;2022-09-12T11:40:37;3.72;;;2.13;;
69323;SDS011;56470;47.350;8.718;2022-09-12T11:46:00;3.13;;;1.80;;
69323;SDS011;56470;47.350;8.718;2022-09-12T11:48:36;2.90;;;1.83;;
69323;SDS011;56470;47.350;8.718;2022-09-12T11:51:16;4.47;;;1.80;;
69323;SDS011;56470;47.350;8.718;2022-09-12T11:53:43;4.47;;;2.10;;
69323;SDS011;56470;47.350;8.718;2022-09-12T11:56:18;5.40;;;2.05;;
69323;SDS011;56470;47.350;8.718;2022-09-12T11:58:46;2.90;;;1.40;;
69323;SDS011;56470;47.350;8.718;2022-09-12T12:01:39;6.32;;;1.88;;
69323;SDS011;56470;47.350;8.718;2022-09-12T12:04:07;3.22;;;1.80;;
69323;SDS011;56470;47.350;8.718;2022-09-12T12:06:46;4.40;;;2.03;;
69323;SDS011;56470;47.350;8.718;2022-09-12T12:09:17;3.42;;;1.80;;
69323;SDS011;56470;47.350;8.718;2022-09-12T12:11:46;3.53;;;1.63;;
69323;SDS011;56470;47.350;8.718;2022-09-12T12:17:12;5.72;;;1.90;;
69323;SDS011;56470;47.350;8.718;2022-09-12T12:19:41;3.83;;;2.00;;
69323;SDS011;56470;47.350;8.718;2022-09-12T12:24:52;4.22;;;1.80;;
69323;SDS011;56470;47.350;8.718;2022-09-12T12:27:44;2.97;;;1.58;;
69323;SDS011;56470;47.350;8.718;2022-09-12T12:32:59;4.40;;;1.50;;
69323;SDS011;56470;47.350;8.718;2022-09-12T12:37:59;2.28;;;1.42;;
69323;SDS011;56470;47.350;8.718;2022-09-12T12:40:26;5.72;;;1.67;;
69323;SDS011;56470;47.350;8.718;2022-09-12T12:43:00;3.55;;;1.70;;
69323;SDS011;56470;47.350;8.718;2022-09-12T12:47:56;11.13;;;1.90;;
69323;SDS011;56470;47.350;8.718;2022-09-12T12:50:26;7.10;;;1.63;;
69323;SDS011;56470;47.350;8.718;2022-09-12T12:55:24;13.88;;;2.90;;
69323;SDS011;56470;47.350;8.718;2022-09-12T12:57:55;8.00;;;1.77;;
69323;SDS011;56470;47.350;8.718;2022-09-12T13:02:56;6.77;;;1.60;;
69323;SDS011;56470;47.350;8.718;2022-09-12T13:05:25;2.97;;;1.38;;
69323;SDS011;56470;47.350;8.718;2022-09-12T13:07:53;3.60;;;1.30;;
69323;SDS011;56470;47.350;8.718;2022-09-12T13:10:22;3.90;;;1.63;;
69323;SDS011;56470;47.350;8.718;2022-09-12T13:12:50;8.40;;;2.25;;
69323;SDS011;56470;47.350;8.718;2022-09-12T13:18:10;4.72;;;1.58;;
69323;SDS011;56470;47.350;8.718;2022-09-12T13:23:32;2.70;;;1.50;;
69323;SDS011;56470;47.350;8.718;2022-09-12T13:25:59;4.00;;;1.80;;
69323;SDS011;56470;47.350;8.718;2022-09-12T13:28:26;4.05;;;1.63;;
69323;SDS011;56470;47.350;8.718;2022-09-12T13:30:55;6.85;;;1.40;;
69323;SDS011;56470;47.350;8.718;2022-09-12T13:36:06;2.60;;;1.85;;
69323;SDS011;56470;47.350;8.718;2022-09-12T13:44:11;7.47;;;1.65;;
69323;SDS011;56470;47.350;8.718;2022-09-12T13:46:39;3.37;;;1.53;;
69323;SDS011;56470;47.350;8.718;2022-09-12T13:52:02;2.63;;;1.58;;
69323;SDS011;56470;47.350;8.718;2022-09-12T13:54:30;3.33;;;1.63;;
69323;SDS011;56470;47.350;8.718;2022-09-12T13:56:57;12.53;;;1.93;;
69323;SDS011;56470;47.350;8.718;2022-09-12T13:59:23;12.23;;;2.25;;
69323;SDS011;56470;47.350;8.718;2022-09-12T14:01:49;4.90;;;1.47;;
69323;SDS011;56470;47.350;8.718;2022-09-12T14:04:21;5.60;;;1.70;;
69323;SDS011;56470;47.350;8.718;2022-09-12T14:07:14;4.40;;;1.70;;
69323;SDS011;56470;47.350;8.718;2022-09-12T14:09:45;4.43;;;1.58;;
69323;SDS011;56470;47.350;8.718;2022-09-12T14:12:21;6.53;;;1.85;;
69323;SDS011;56470;47.350;8.718;2022-09-12T14:15:23;4.13;;;1.40;;
69323;SDS011;56470;47.350;8.718;2022-09-12T14:17:55;2.47;;;1.67;;
69323;SDS011;56470;47.350;8.718;2022-09-12T14:20:25;2.70;;;1.17;;
69323;SDS011;56470;47.350;8.718;2022-09-12T14:22:58;2.83;;;1.15;;
69323;SDS011;56470;47.350;8.718;2022-09-12T14:25:26;2.17;;;1.40;;
69323;SDS011;56470;47.350;8.718;2022-09-12T14:27:55;2.50;;;1.60;;
69323;SDS011;56470;47.350;8.718;2022-09-12T14:30:25;2.20;;;1.33;;
69323;SDS011;56470;47.350;8.718;2022-09-12T14:33:04;2.23;;;1.60;;
69323;SDS011;56470;47.350;8.718;2022-09-12T14:35:37;7.10;;;1.48;;
69323;SDS011;56470;47.350;8.718;2022-09-12T14:38:12;4.00;;;1.40;;
69323;SDS011;56470;47.350;8.718;2022-09-12T14:40:45;3.00;;;1.42;;
69323;SDS011;56470;47.350;8.718;2022-09-12T14:43:31;2.05;;;1.55;;
69323;SDS011;56470;47.350;8.718;2022-09-12T14:46:14;2.63;;;1.10;;
69323;SDS011;56470;47.350;8.718;2022-09-12T14:48:57;2.45;;;1.20;;
69323;SDS011;56470;47.350;8.718;2022-09-12T14:51:26;2.15;;;1.30;;
69323;SDS011;56470;47.350;8.718;2022-09-12T14:53:55;3.25;;;1.20;;
69323;SDS011;56470;47.350;8.718;2022-09-12T14:56:35;2.92;;;1.50;;
69323;SDS011;56470;47.350;8.718;2022-09-12T15:02:13;3.13;;;1.67;;
69323;SDS011;56470;47.350;8.718;2022-09-12T15:04:47;2.70;;;1.52;;
69323;SDS011;56470;47.350;8.718;2022-09-12T15:09:39;2.88;;;1.67;;
69323;SDS011;56470;47.350;8.718;2022-09-12T15:12:04;2.03;;;1.23;;
69323;SDS011;56470;47.350;8.718;2022-09-12T15:14:30;2.43;;;1.60;;
69323;SDS011;56470;47.350;8.718;2022-09-12T15:16:55;3.57;;;1.40;;
69323;SDS011;56470;47.350;8.718;2022-09-12T15:19:20;3.27;;;1.67;;
69323;SDS011;56470;47.350;8.718;2022-09-12T15:21:46;2.07;;;1.43;;
69323;SDS011;56470;47.350;8.718;2022-09-12T15:24:11;3.85;;;1.63;;
69323;SDS011;56470;47.350;8.718;2022-09-12T15:26:36;1.70;;;1.30;;
69323;SDS011;56470;47.350;8.718;2022-09-12T15:29:02;2.30;;;1.63;;
69323;SDS011;56470;47.350;8.718;2022-09-12T15:31:28;1.77;;;1.30;;
69323;SDS011;56470;47.350;8.718;2022-09-12T15:33:55;5.20;;;1.45;;
69323;SDS011;56470;47.350;8.718;2022-09-12T15:36:23;4.78;;;2.03;;
69323;SDS011;56470;47.350;8.718;2022-09-12T15:38:49;4.18;;;1.67;;
69323;SDS011;56470;47.350;8.718;2022-09-12T15:41:19;4.70;;;1.40;;
69323;SDS011;56470;47.350;8.718;2022-09-12T15:43:46;3.37;;;1.50;;
69323;SDS011;56470;47.350;8.718;2022-09-12T15:46:12;7.07;;;1.85;;
69323;SDS011;56470;47.350;8.718;2022-09-12T15:48:39;3.17;;;1.30;;
69323;SDS011;56470;47.350;8.718;2022-09-12T15:51:15;2.63;;;1.40;;
69323;SDS011;56470;47.350;8.718;2022-09-12T15:53:42;3.38;;;1.70;;
69323;SDS011;56470;47.350;8.718;2022-09-12T15:56:08;5.97;;;1.90;;
69323;SDS011;56470;47.350;8.718;2022-09-12T15:58:34;3.13;;;1.80;;
69323;SDS011;56470;47.350;8.718;2022-09-12T16:00:59;3.40;;;1.90;;
69323;SDS011;56470;47.350;8.718;2022-09-12T16:03:26;3.13;;;1.73;;
69323;SDS011;56470;47.350;8.718;2022-09-12T16:05:56;3.10;;;1.63;;
69323;SDS011;56470;47.350;8.718;2022-09-12T16:08:23;2.17;;;1.67;;
69323;SDS011;56470;47.350;8.718;2022-09-12T16:10:50;1.77;;;1.50;;
69323;SDS011;56470;47.350;8.718;2022-09-12T16:13:18;3.17;;;1.60;;
69323;SDS011;56470;47.350;8.718;2022-09-12T16:15:43;2.60;;;1.60;;
69323;SDS011;56470;47.350;8.718;2022-09-12T16:18:09;2.42;;;1.42;;
69323;SDS011;56470;47.350;8.718;2022-09-12T16:20:37;3.83;;;1.50;;
69323;SDS011;56470;47.350;8.718;2022-09-12T16:23:03;2.38;;;1.17;;
69323;SDS011;56470;47.350;8.718;2022-09-12T16:25:28;2.83;;;1.70;;
69323;SDS011;56470;47.350;8.718;2022-09-12T16:27:53;3.13;;;1.60;;
69323;SDS011;56470;47.350;8.718;2022-09-12T16:30:18;2.20;;;1.30;;
69323;SDS011;56470;47.350;8.718;2022-09-12T16:32:44;3.10;;;1.30;;
69323;SDS011;56470;47.350;8.718;2022-09-12T16:35:10;2.88;;;1.58;;
69323;SDS011;56470;47.350;8.718;2022-09-12T16:37:35;1.60;;;1.13;;
69323;SDS011;56470;47.350;8.718;2022-09-12T16:40:04;2.17;;;1.43;;
69323;SDS011;56470;47.350;8.718;2022-09-12T16:42:30;2.85;;;1.77;;
69323;SDS011;56470;47.350;8.718;2022-09-12T16:44:55;3.50;;;1.70;;
69323;SDS011;56470;47.350;8.718;2022-09-12T16:47:20;3.10;;;1.73;;
69323;SDS011;56470;47.350;8.718;2022-09-12T16:49:46;3.03;;;1.57;;
69323;SDS011;56470;47.350;8.718;2022-09-12T16:52:11;1.90;;;1.20;;
69323;SDS011;56470;47.350;8.718;2022-09-12T16:54:40;2.20;;;1.10;;
69323;SDS011;56470;47.350;8.718;2022-09-12T16:57:06;3.77;;;1.60;;
69323;SDS011;56470;47.350;8.718;2022-09-12T16:59:31;2.03;;;1.08;;
69323;SDS011;56470;47.350;8.718;2022-09-12T17:01:56;2.83;;;1.30;;
69323;SDS011;56470;47.350;8.718;2022-09-12T17:04:22;2.60;;;1.43;;
69323;SDS011;56470;47.350;8.718;2022-09-12T17:06:47;2.57;;;1.70;;
69323;SDS011;56470;47.350;8.718;2022-09-12T17:09:12;4.30;;;1.80;;
69323;SDS011;56470;47.350;8.718;2022-09-12T17:11:42;3.92;;;1.83;;